sensor_id;sensor_type;location;lat;lon;timestamp;P1;durP1;ratioP1;P2;durP2;ratioP2
46765;SDS011;32527;51.986;5.842;2022-12-07T00:02:11;21.60;;;12.35;;
46765;SDS011;32527;51.986;5.842;2022-12-07T00:04:38;25.75;;;13.32;;
46765;SDS011;32527;51.986;5.842;2022-12-07T00:07:03;26.60;;;13.68;;
46765;SDS011;32527;51.986;5.842;2022-12-07T00:09:29;21.83;;;12.00;;
46765;SDS011;32527;51.986;5.842;2022-12-07T00:11:55;22.23;;;12.07;;
46765;SDS011;32527;51.986;5.842;2022-12-07T00:14:21;24.90;;;13.10;;
46765;SDS011;32527;51.986;5.842;2022-12-07T00:16:50;27.38;;;13.68;;
46765;SDS011;32527;51.986;5.842;2022-12-07T00:19:17;23.17;;;11.57;;
46765;SDS011;32527;51.986;5.842;2022-12-07T00:21:43;20.52;;;12.38;;
46765;SDS011;32527;51.986;5.842;2022-12-07T00:24:09;25.65;;;11.85;;
46765;SDS011;32527;51.986;5.842;2022-12-07T00:26:37;23.55;;;11.25;;
46765;SDS011;32527;51.986;5.842;2022-12-07T00:29:06;19.42;;;11.27;;
46765;SDS011;32527;51.986;5.842;2022-12-07T00:31:38;24.35;;;11.27;;
46765;SDS011;32527;51.986;5.842;2022-12-07T00:34:09;23.35;;;11.57;;
46765;SDS011;32527;51.986;5.842;2022-12-07T00:36:38;20.95;;;10.90;;
46765;SDS011;32527;51.986;5.842;2022-12-07T00:39:04;28.92;;;11.32;;
46765;SDS011;32527;51.986;5.842;2022-12-07T00:41:30;20.52;;;10.43;;
46765;SDS011;32527;51.986;5.842;2022-12-07T00:43:57;21.95;;;11.75;;
46765;SDS011;32527;51.986;5.842;2022-12-07T00:46:23;21.77;;;10.43;;
46765;SDS011;32527;51.986;5.842;2022-12-07T00:48:50;27.17;;;11.23;;
46765;SDS011;32527;51.986;5.842;2022-12-07T00:51:18;18.00;;;10.55;;
46765;SDS011;32527;51.986;5.842;2022-12-07T00:53:46;28.98;;;11.90;;
46765;SDS011;32527;51.986;5.842;2022-12-07T00:56:13;23.30;;;12.18;;
46765;SDS011;32527;51.986;5.842;2022-12-07T00:58:49;21.65;;;11.18;;
46765;SDS011;32527;51.986;5.842;2022-12-07T01:01:16;21.55;;;10.25;;
46765;SDS011;32527;51.986;5.842;2022-12-07T01:03:42;21.85;;;11.95;;
46765;SDS011;32527;51.986;5.842;2022-12-07T01:06:08;23.95;;;11.02;;
46765;SDS011;32527;51.986;5.842;2022-12-07T01:08:34;24.58;;;10.88;;
46765;SDS011;32527;51.986;5.842;2022-12-07T01:11:02;23.35;;;10.38;;
46765;SDS011;32527;51.986;5.842;2022-12-07T01:13:30;29.10;;;11.52;;
46765;SDS011;32527;51.986;5.842;2022-12-07T01:15:57;28.35;;;10.65;;
46765;SDS011;32527;51.986;5.842;2022-12-07T01:18:25;25.00;;;12.55;;
46765;SDS011;32527;51.986;5.842;2022-12-07T01:21:26;22.60;;;11.20;;
46765;SDS011;32527;51.986;5.842;2022-12-07T01:23:48;19.38;;;11.68;;
46765;SDS011;32527;51.986;5.842;2022-12-07T01:26:17;32.20;;;11.05;;
46765;SDS011;32527;51.986;5.842;2022-12-07T01:28:45;22.65;;;10.40;;
46765;SDS011;32527;51.986;5.842;2022-12-07T01:31:18;23.55;;;9.30;;
46765;SDS011;32527;51.986;5.842;2022-12-07T01:33:46;22.95;;;10.50;;
46765;SDS011;32527;51.986;5.842;2022-12-07T01:38:47;26.13;;;10.95;;
46765;SDS011;32527;51.986;5.842;2022-12-07T01:41:14;25.02;;;10.50;;
46765;SDS011;32527;51.986;5.842;2022-12-07T01:46:46;32.47;;;10.45;;
46765;SDS011;32527;51.986;5.842;2022-12-07T01:49:42;23.92;;;10.45;;
46765;SDS011;32527;51.986;5.842;2022-12-07T01:54:51;31.90;;;11.43;;
46765;SDS011;32527;51.986;5.842;2022-12-07T01:57:20;23.38;;;10.80;;
46765;SDS011;32527;51.986;5.842;2022-12-07T01:59:47;24.38;;;10.65;;
46765;SDS011;32527;51.986;5.842;2022-12-07T02:02:19;28.95;;;10.40;;
46765;SDS011;32527;51.986;5.842;2022-12-07T02:04:50;20.63;;;11.38;;
46765;SDS011;32527;51.986;5.842;2022-12-07T02:07:18;26.08;;;12.40;;
46765;SDS011;32527;51.986;5.842;2022-12-07T02:09:44;25.90;;;9.90;;
46765;SDS011;32527;51.986;5.842;2022-12-07T02:12:10;26.80;;;11.38;;
46765;SDS011;32527;51.986;5.842;2022-12-07T02:14:36;23.13;;;11.10;;
46765;SDS011;32527;51.986;5.842;2022-12-07T02:22:07;23.65;;;11.68;;
46765;SDS011;32527;51.986;5.842;2022-12-07T02:25:07;22.88;;;10.82;;
46765;SDS011;32527;51.986;5.842;2022-12-07T02:27:56;22.63;;;11.48;;
46765;SDS011;32527;51.986;5.842;2022-12-07T02:30:32;29.95;;;10.77;;
46765;SDS011;32527;51.986;5.842;2022-12-07T02:40:52;25.80;;;9.85;;
46765;SDS011;32527;51.986;5.842;2022-12-07T02:43:37;24.85;;;10.27;;
46765;SDS011;32527;51.986;5.842;2022-12-07T02:46:08;17.33;;;9.85;;
46765;SDS011;32527;51.986;5.842;2022-12-07T02:48:37;26.98;;;9.77;;
46765;SDS011;32527;51.986;5.842;2022-12-07T02:51:23;22.95;;;9.60;;
46765;SDS011;32527;51.986;5.842;2022-12-07T02:53:48;19.23;;;8.95;;
46765;SDS011;32527;51.986;5.842;2022-12-07T02:59:17;20.15;;;9.30;;
46765;SDS011;32527;51.986;5.842;2022-12-07T03:11:03;23.45;;;10.15;;
46765;SDS011;32527;51.986;5.842;2022-12-07T03:16:26;26.38;;;8.60;;
46765;SDS011;32527;51.986;5.842;2022-12-07T03:18:57;21.30;;;9.23;;
46765;SDS011;32527;51.986;5.842;2022-12-07T03:21:26;17.23;;;8.93;;
46765;SDS011;32527;51.986;5.842;2022-12-07T03:24:04;20.42;;;8.60;;
46765;SDS011;32527;51.986;5.842;2022-12-07T03:26:36;18.08;;;8.38;;
46765;SDS011;32527;51.986;5.842;2022-12-07T03:29:07;17.67;;;8.77;;
46765;SDS011;32527;51.986;5.842;2022-12-07T03:31:41;18.50;;;9.00;;
46765;SDS011;32527;51.986;5.842;2022-12-07T03:34:14;17.60;;;8.07;;
46765;SDS011;32527;51.986;5.842;2022-12-07T03:37:12;14.15;;;7.38;;
46765;SDS011;32527;51.986;5.842;2022-12-07T03:39:53;20.40;;;7.15;;
46765;SDS011;32527;51.986;5.842;2022-12-07T03:42:22;21.38;;;8.35;;
46765;SDS011;32527;51.986;5.842;2022-12-07T03:44:48;17.60;;;8.48;;
46765;SDS011;32527;51.986;5.842;2022-12-07T03:47:26;19.30;;;8.07;;
46765;SDS011;32527;51.986;5.842;2022-12-07T03:49:59;21.52;;;7.85;;
46765;SDS011;32527;51.986;5.842;2022-12-07T03:53:02;15.93;;;7.57;;
46765;SDS011;32527;51.986;5.842;2022-12-07T03:55:35;23.23;;;6.97;;
46765;SDS011;32527;51.986;5.842;2022-12-07T03:58:05;19.83;;;7.43;;
46765;SDS011;32527;51.986;5.842;2022-12-07T04:00:35;16.50;;;7.43;;
46765;SDS011;32527;51.986;5.842;2022-12-07T04:03:01;12.95;;;6.50;;
46765;SDS011;32527;51.986;5.842;2022-12-07T04:05:28;12.85;;;6.70;;
46765;SDS011;32527;51.986;5.842;2022-12-07T04:07:54;18.48;;;7.38;;
46765;SDS011;32527;51.986;5.842;2022-12-07T04:10:20;14.93;;;7.22;;
46765;SDS011;32527;51.986;5.842;2022-12-07T04:12:46;18.17;;;7.68;;
46765;SDS011;32527;51.986;5.842;2022-12-07T04:15:12;20.75;;;6.82;;
46765;SDS011;32527;51.986;5.842;2022-12-07T04:17:38;13.80;;;7.05;;
46765;SDS011;32527;51.986;5.842;2022-12-07T04:20:04;17.48;;;6.88;;
46765;SDS011;32527;51.986;5.842;2022-12-07T04:22:31;13.60;;;7.05;;
46765;SDS011;32527;51.986;5.842;2022-12-07T04:24:57;12.68;;;7.07;;
46765;SDS011;32527;51.986;5.842;2022-12-07T04:27:23;18.77;;;7.03;;
46765;SDS011;32527;51.986;5.842;2022-12-07T04:29:53;21.48;;;6.70;;
46765;SDS011;32527;51.986;5.842;2022-12-07T04:32:21;16.63;;;6.45;;
46765;SDS011;32527;51.986;5.842;2022-12-07T04:34:47;13.48;;;5.78;;
46765;SDS011;32527;51.986;5.842;2022-12-07T04:37:14;13.77;;;6.57;;
46765;SDS011;32527;51.986;5.842;2022-12-07T04:39:41;20.98;;;6.40;;
46765;SDS011;32527;51.986;5.842;2022-12-07T04:42:13;17.52;;;5.70;;
46765;SDS011;32527;51.986;5.842;2022-12-07T04:44:41;14.63;;;6.22;;
46765;SDS011;32527;51.986;5.842;2022-12-07T04:47:07;13.75;;;6.20;;
46765;SDS011;32527;51.986;5.842;2022-12-07T04:49:37;17.55;;;6.97;;
46765;SDS011;32527;51.986;5.842;2022-12-07T04:52:06;19.10;;;5.93;;
46765;SDS011;32527;51.986;5.842;2022-12-07T04:54:37;13.23;;;5.18;;
46765;SDS011;32527;51.986;5.842;2022-12-07T04:57:06;19.45;;;5.60;;
46765;SDS011;32527;51.986;5.842;2022-12-07T04:59:33;14.52;;;6.05;;
46765;SDS011;32527;51.986;5.842;2022-12-07T05:02:00;13.40;;;5.97;;
46765;SDS011;32527;51.986;5.842;2022-12-07T05:04:27;11.50;;;5.32;;
46765;SDS011;32527;51.986;5.842;2022-12-07T05:06:54;13.30;;;5.03;;
46765;SDS011;32527;51.986;5.842;2022-12-07T05:09:20;15.77;;;5.65;;
46765;SDS011;32527;51.986;5.842;2022-12-07T05:11:47;10.13;;;4.82;;
46765;SDS011;32527;51.986;5.842;2022-12-07T05:14:20;13.27;;;5.22;;
46765;SDS011;32527;51.986;5.842;2022-12-07T05:16:52;12.80;;;4.80;;
46765;SDS011;32527;51.986;5.842;2022-12-07T05:19:22;16.45;;;4.57;;
46765;SDS011;32527;51.986;5.842;2022-12-07T05:21:53;10.90;;;4.50;;
46765;SDS011;32527;51.986;5.842;2022-12-07T05:24:22;14.93;;;5.40;;
46765;SDS011;32527;51.986;5.842;2022-12-07T05:26:51;10.57;;;4.50;;
46765;SDS011;32527;51.986;5.842;2022-12-07T05:29:17;15.98;;;4.75;;
46765;SDS011;32527;51.986;5.842;2022-12-07T05:31:55;7.00;;;3.90;;
46765;SDS011;32527;51.986;5.842;2022-12-07T05:34:24;10.30;;;4.15;;
46765;SDS011;32527;51.986;5.842;2022-12-07T05:36:58;10.43;;;4.25;;
46765;SDS011;32527;51.986;5.842;2022-12-07T05:39:32;13.23;;;6.13;;
46765;SDS011;32527;51.986;5.842;2022-12-07T05:42:18;14.18;;;5.00;;
46765;SDS011;32527;51.986;5.842;2022-12-07T05:44:50;15.02;;;5.78;;
46765;SDS011;32527;51.986;5.842;2022-12-07T05:47:23;14.30;;;5.60;;
46765;SDS011;32527;51.986;5.842;2022-12-07T05:50:12;16.92;;;5.68;;
46765;SDS011;32527;51.986;5.842;2022-12-07T05:52:40;11.00;;;5.30;;
46765;SDS011;32527;51.986;5.842;2022-12-07T05:55:10;9.90;;;4.53;;
46765;SDS011;32527;51.986;5.842;2022-12-07T05:57:39;20.20;;;6.03;;
46765;SDS011;32527;51.986;5.842;2022-12-07T06:00:28;17.98;;;6.68;;
46765;SDS011;32527;51.986;5.842;2022-12-07T06:03:12;14.38;;;6.70;;
46765;SDS011;32527;51.986;5.842;2022-12-07T06:06:19;18.95;;;7.82;;
46765;SDS011;32527;51.986;5.842;2022-12-07T06:08:46;14.02;;;7.50;;
46765;SDS011;32527;51.986;5.842;2022-12-07T06:11:17;21.05;;;6.95;;
46765;SDS011;32527;51.986;5.842;2022-12-07T06:14:04;15.13;;;6.85;;
46765;SDS011;32527;51.986;5.842;2022-12-07T06:16:33;20.35;;;6.93;;
46765;SDS011;32527;51.986;5.842;2022-12-07T06:21:30;11.52;;;7.18;;
46765;SDS011;32527;51.986;5.842;2022-12-07T06:24:06;15.95;;;7.88;;
46765;SDS011;32527;51.986;5.842;2022-12-07T06:26:49;16.90;;;7.30;;
46765;SDS011;32527;51.986;5.842;2022-12-07T06:29:16;16.95;;;7.40;;
46765;SDS011;32527;51.986;5.842;2022-12-07T06:31:48;15.50;;;6.70;;
46765;SDS011;32527;51.986;5.842;2022-12-07T06:34:16;16.48;;;6.57;;
46765;SDS011;32527;51.986;5.842;2022-12-07T06:36:56;14.18;;;7.18;;
46765;SDS011;32527;51.986;5.842;2022-12-07T06:39:24;14.27;;;6.90;;
46765;SDS011;32527;51.986;5.842;2022-12-07T06:42:00;15.98;;;7.13;;
46765;SDS011;32527;51.986;5.842;2022-12-07T06:44:26;16.10;;;6.20;;
46765;SDS011;32527;51.986;5.842;2022-12-07T06:46:55;16.77;;;5.00;;
46765;SDS011;32527;51.986;5.842;2022-12-07T06:49:21;15.05;;;5.95;;
46765;SDS011;32527;51.986;5.842;2022-12-07T06:51:48;12.15;;;5.40;;
46765;SDS011;32527;51.986;5.842;2022-12-07T06:54:17;13.13;;;5.05;;
46765;SDS011;32527;51.986;5.842;2022-12-07T06:56:49;10.00;;;4.90;;
46765;SDS011;32527;51.986;5.842;2022-12-07T06:59:15;18.65;;;5.47;;
46765;SDS011;32527;51.986;5.842;2022-12-07T07:01:42;9.88;;;4.70;;
46765;SDS011;32527;51.986;5.842;2022-12-07T07:04:08;12.32;;;5.40;;
46765;SDS011;32527;51.986;5.842;2022-12-07T07:06:37;10.40;;;4.40;;
46765;SDS011;32527;51.986;5.842;2022-12-07T07:09:04;16.40;;;4.90;;
46765;SDS011;32527;51.986;5.842;2022-12-07T07:11:37;11.57;;;4.40;;
46765;SDS011;32527;51.986;5.842;2022-12-07T07:14:02;12.07;;;4.68;;
46765;SDS011;32527;51.986;5.842;2022-12-07T07:16:33;15.88;;;4.65;;
46765;SDS011;32527;51.986;5.842;2022-12-07T07:19:07;9.32;;;4.70;;
46765;SDS011;32527;51.986;5.842;2022-12-07T07:21:33;14.93;;;4.47;;
46765;SDS011;32527;51.986;5.842;2022-12-07T07:24:00;11.02;;;3.83;;
46765;SDS011;32527;51.986;5.842;2022-12-07T07:26:28;12.05;;;4.40;;
46765;SDS011;32527;51.986;5.842;2022-12-07T07:28:55;13.40;;;3.95;;
46765;SDS011;32527;51.986;5.842;2022-12-07T07:31:21;11.93;;;4.22;;
46765;SDS011;32527;51.986;5.842;2022-12-07T07:33:47;11.93;;;4.45;;
46765;SDS011;32527;51.986;5.842;2022-12-07T07:36:14;15.80;;;4.25;;
46765;SDS011;32527;51.986;5.842;2022-12-07T07:38:59;13.18;;;5.47;;
46765;SDS011;32527;51.986;5.842;2022-12-07T07:41:31;10.05;;;4.68;;
46765;SDS011;32527;51.986;5.842;2022-12-07T07:43:57;13.38;;;3.72;;
46765;SDS011;32527;51.986;5.842;2022-12-07T07:46:29;10.75;;;4.22;;
46765;SDS011;32527;51.986;5.842;2022-12-07T07:49:06;12.32;;;4.60;;
46765;SDS011;32527;51.986;5.842;2022-12-07T07:51:33;7.75;;;4.43;;
46765;SDS011;32527;51.986;5.842;2022-12-07T07:54:04;10.23;;;4.82;;
46765;SDS011;32527;51.986;5.842;2022-12-07T07:56:33;11.55;;;4.32;;
46765;SDS011;32527;51.986;5.842;2022-12-07T07:58:59;12.40;;;4.88;;
46765;SDS011;32527;51.986;5.842;2022-12-07T08:01:27;11.82;;;4.70;;
46765;SDS011;32527;51.986;5.842;2022-12-07T08:03:58;17.92;;;5.20;;
46765;SDS011;32527;51.986;5.842;2022-12-07T08:06:25;11.98;;;4.55;;
46765;SDS011;32527;51.986;5.842;2022-12-07T08:08:54;22.95;;;5.45;;
46765;SDS011;32527;51.986;5.842;2022-12-07T08:11:26;15.68;;;4.85;;
46765;SDS011;32527;51.986;5.842;2022-12-07T08:13:54;13.70;;;4.95;;
46765;SDS011;32527;51.986;5.842;2022-12-07T08:16:29;13.88;;;5.20;;
46765;SDS011;32527;51.986;5.842;2022-12-07T08:19:07;14.07;;;4.75;;
46765;SDS011;32527;51.986;5.842;2022-12-07T08:25:12;9.43;;;4.63;;
46765;SDS011;32527;51.986;5.842;2022-12-07T08:35:26;13.65;;;4.25;;
46765;SDS011;32527;51.986;5.842;2022-12-07T08:37:52;11.70;;;3.92;;
46765;SDS011;32527;51.986;5.842;2022-12-07T08:40:18;17.50;;;4.97;;
46765;SDS011;32527;51.986;5.842;2022-12-07T08:42:49;15.63;;;4.25;;
46765;SDS011;32527;51.986;5.842;2022-12-07T08:45:16;21.10;;;5.45;;
46765;SDS011;32527;51.986;5.842;2022-12-07T08:47:57;12.02;;;4.35;;
46765;SDS011;32527;51.986;5.842;2022-12-07T08:50:28;15.30;;;4.05;;
46765;SDS011;32527;51.986;5.842;2022-12-07T08:52:55;11.55;;;4.20;;
46765;SDS011;32527;51.986;5.842;2022-12-07T08:55:23;10.35;;;4.22;;
46765;SDS011;32527;51.986;5.842;2022-12-07T08:57:49;12.88;;;4.78;;
46765;SDS011;32527;51.986;5.842;2022-12-07T09:00:15;14.70;;;4.00;;
46765;SDS011;32527;51.986;5.842;2022-12-07T09:02:44;11.95;;;4.10;;
46765;SDS011;32527;51.986;5.842;2022-12-07T09:05:11;10.15;;;3.88;;
46765;SDS011;32527;51.986;5.842;2022-12-07T09:07:40;12.32;;;3.95;;
46765;SDS011;32527;51.986;5.842;2022-12-07T09:10:08;22.83;;;4.80;;
46765;SDS011;32527;51.986;5.842;2022-12-07T09:12:34;11.38;;;3.80;;
46765;SDS011;32527;51.986;5.842;2022-12-07T09:14:59;10.02;;;4.20;;
46765;SDS011;32527;51.986;5.842;2022-12-07T09:17:26;8.98;;;4.18;;
46765;SDS011;32527;51.986;5.842;2022-12-07T09:19:52;13.00;;;4.57;;
46765;SDS011;32527;51.986;5.842;2022-12-07T09:22:18;14.00;;;4.20;;
46765;SDS011;32527;51.986;5.842;2022-12-07T09:24:44;12.32;;;3.95;;
46765;SDS011;32527;51.986;5.842;2022-12-07T09:27:11;14.43;;;4.90;;
46765;SDS011;32527;51.986;5.842;2022-12-07T09:29:37;13.65;;;4.13;;
46765;SDS011;32527;51.986;5.842;2022-12-07T09:32:02;11.70;;;4.07;;
46765;SDS011;32527;51.986;5.842;2022-12-07T09:34:30;19.35;;;4.70;;
46765;SDS011;32527;51.986;5.842;2022-12-07T09:36:57;14.80;;;4.88;;
46765;SDS011;32527;51.986;5.842;2022-12-07T09:39:23;12.18;;;4.05;;
46765;SDS011;32527;51.986;5.842;2022-12-07T09:41:49;15.85;;;4.68;;
46765;SDS011;32527;51.986;5.842;2022-12-07T09:44:20;11.65;;;5.13;;
46765;SDS011;32527;51.986;5.842;2022-12-07T09:46:49;13.32;;;6.03;;
46765;SDS011;32527;51.986;5.842;2022-12-07T09:49:22;17.85;;;5.43;;
46765;SDS011;32527;51.986;5.842;2022-12-07T09:54:29;13.85;;;5.10;;
46765;SDS011;32527;51.986;5.842;2022-12-07T09:56:55;23.95;;;6.03;;
46765;SDS011;32527;51.986;5.842;2022-12-07T09:59:22;11.55;;;4.78;;
46765;SDS011;32527;51.986;5.842;2022-12-07T10:01:49;10.88;;;4.35;;
46765;SDS011;32527;51.986;5.842;2022-12-07T10:04:19;15.55;;;4.30;;
46765;SDS011;32527;51.986;5.842;2022-12-07T10:06:50;9.95;;;3.60;;
46765;SDS011;32527;51.986;5.842;2022-12-07T10:09:17;12.60;;;4.57;;
46765;SDS011;32527;51.986;5.842;2022-12-07T10:14:53;10.77;;;4.03;;
46765;SDS011;32527;51.986;5.842;2022-12-07T10:17:31;18.50;;;4.55;;
46765;SDS011;32527;51.986;5.842;2022-12-07T10:22:53;9.65;;;3.70;;
46765;SDS011;32527;51.986;5.842;2022-12-07T10:25:22;12.65;;;3.78;;
46765;SDS011;32527;51.986;5.842;2022-12-07T10:33:58;17.80;;;4.55;;
46765;SDS011;32527;51.986;5.842;2022-12-07T10:41:17;14.27;;;6.50;;
46765;SDS011;32527;51.986;5.842;2022-12-07T10:43:48;13.23;;;4.57;;
46765;SDS011;32527;51.986;5.842;2022-12-07T10:54:02;12.02;;;4.15;;
46765;SDS011;32527;51.986;5.842;2022-12-07T10:56:52;6.07;;;3.10;;
46765;SDS011;32527;51.986;5.842;2022-12-07T10:59:24;14.32;;;3.40;;
46765;SDS011;32527;51.986;5.842;2022-12-07T11:05:27;8.68;;;3.83;;
46765;SDS011;32527;51.986;5.842;2022-12-07T11:13:25;5.88;;;2.45;;
46765;SDS011;32527;51.986;5.842;2022-12-07T11:16:02;10.70;;;3.33;;
46765;SDS011;32527;51.986;5.842;2022-12-07T11:18:32;9.85;;;3.92;;
46765;SDS011;32527;51.986;5.842;2022-12-07T11:24:40;13.27;;;4.25;;
46765;SDS011;32527;51.986;5.842;2022-12-07T11:33:04;8.27;;;3.53;;
46765;SDS011;32527;51.986;5.842;2022-12-07T11:36:09;9.85;;;3.40;;
46765;SDS011;32527;51.986;5.842;2022-12-07T11:39:03;17.70;;;3.33;;
46765;SDS011;32527;51.986;5.842;2022-12-07T11:41:37;11.18;;;2.85;;
46765;SDS011;32527;51.986;5.842;2022-12-07T11:47:16;9.13;;;3.20;;
46765;SDS011;32527;51.986;5.842;2022-12-07T11:49:47;12.95;;;4.38;;
46765;SDS011;32527;51.986;5.842;2022-12-07T11:52:44;8.57;;;2.70;;
46765;SDS011;32527;51.986;5.842;2022-12-07T11:55:40;8.38;;;3.92;;
46765;SDS011;32527;51.986;5.842;2022-12-07T11:58:19;8.43;;;2.75;;
46765;SDS011;32527;51.986;5.842;2022-12-07T12:03:45;6.00;;;2.80;;
46765;SDS011;32527;51.986;5.842;2022-12-07T12:06:12;16.52;;;4.50;;
46765;SDS011;32527;51.986;5.842;2022-12-07T12:08:50;13.73;;;4.30;;
46765;SDS011;32527;51.986;5.842;2022-12-07T12:11:38;10.70;;;2.95;;
46765;SDS011;32527;51.986;5.842;2022-12-07T12:19:22;8.63;;;3.20;;
46765;SDS011;32527;51.986;5.842;2022-12-07T12:22:15;12.13;;;2.95;;
46765;SDS011;32527;51.986;5.842;2022-12-07T12:24:45;9.95;;;3.20;;
46765;SDS011;32527;51.986;5.842;2022-12-07T12:30:02;5.15;;;2.55;;
46765;SDS011;32527;51.986;5.842;2022-12-07T12:32:40;6.47;;;2.40;;
46765;SDS011;32527;51.986;5.842;2022-12-07T12:46:54;8.73;;;4.25;;
46765;SDS011;32527;51.986;5.842;2022-12-07T12:56:58;16.45;;;3.70;;
46765;SDS011;32527;51.986;5.842;2022-12-07T12:59:38;9.13;;;2.45;;
46765;SDS011;32527;51.986;5.842;2022-12-07T13:02:24;9.65;;;3.10;;
46765;SDS011;32527;51.986;5.842;2022-12-07T13:13:01;9.98;;;2.75;;
46765;SDS011;32527;51.986;5.842;2022-12-07T13:15:35;7.03;;;2.78;;
46765;SDS011;32527;51.986;5.842;2022-12-07T13:18:02;21.13;;;3.25;;
46765;SDS011;32527;51.986;5.842;2022-12-07T13:20:58;8.05;;;2.53;;
46765;SDS011;32527;51.986;5.842;2022-12-07T13:23:29;7.53;;;3.03;;
46765;SDS011;32527;51.986;5.842;2022-12-07T13:26:14;13.02;;;3.58;;
46765;SDS011;32527;51.986;5.842;2022-12-07T13:28:42;11.65;;;2.55;;
46765;SDS011;32527;51.986;5.842;2022-12-07T13:33:45;5.78;;;2.50;;
46765;SDS011;32527;51.986;5.842;2022-12-07T13:36:17;6.32;;;2.72;;
46765;SDS011;32527;51.986;5.842;2022-12-07T13:38:49;6.60;;;2.55;;
46765;SDS011;32527;51.986;5.842;2022-12-07T13:41:28;17.42;;;3.47;;
46765;SDS011;32527;51.986;5.842;2022-12-07T13:44:11;6.25;;;3.63;;
46765;SDS011;32527;51.986;5.842;2022-12-07T13:51:44;6.07;;;2.53;;
46765;SDS011;32527;51.986;5.842;2022-12-07T13:54:11;17.23;;;4.35;;
46765;SDS011;32527;51.986;5.842;2022-12-07T13:56:38;7.88;;;2.97;;
46765;SDS011;32527;51.986;5.842;2022-12-07T13:59:14;14.55;;;3.00;;
46765;SDS011;32527;51.986;5.842;2022-12-07T14:01:44;8.77;;;2.80;;
46765;SDS011;32527;51.986;5.842;2022-12-07T14:07:18;7.70;;;2.35;;
46765;SDS011;32527;51.986;5.842;2022-12-07T14:10:00;7.60;;;2.80;;
46765;SDS011;32527;51.986;5.842;2022-12-07T14:12:31;6.43;;;2.45;;
46765;SDS011;32527;51.986;5.842;2022-12-07T14:14:58;9.52;;;3.55;;
46765;SDS011;32527;51.986;5.842;2022-12-07T14:17:26;7.78;;;2.38;;
46765;SDS011;32527;51.986;5.842;2022-12-07T14:19:55;6.05;;;2.22;;
46765;SDS011;32527;51.986;5.842;2022-12-07T14:25:23;7.35;;;2.15;;
46765;SDS011;32527;51.986;5.842;2022-12-07T14:30:28;8.13;;;2.60;;
46765;SDS011;32527;51.986;5.842;2022-12-07T14:32:57;6.95;;;2.50;;
46765;SDS011;32527;51.986;5.842;2022-12-07T14:35:25;10.20;;;2.80;;
46765;SDS011;32527;51.986;5.842;2022-12-07T14:37:51;4.65;;;2.63;;
46765;SDS011;32527;51.986;5.842;2022-12-07T14:40:19;7.30;;;3.10;;
46765;SDS011;32527;51.986;5.842;2022-12-07T14:42:47;6.75;;;2.92;;
46765;SDS011;32527;51.986;5.842;2022-12-07T14:45:20;5.82;;;2.80;;
46765;SDS011;32527;51.986;5.842;2022-12-07T14:47:47;8.85;;;2.65;;
46765;SDS011;32527;51.986;5.842;2022-12-07T14:50:14;5.85;;;3.33;;
46765;SDS011;32527;51.986;5.842;2022-12-07T14:52:43;5.40;;;2.40;;
46765;SDS011;32527;51.986;5.842;2022-12-07T14:55:25;6.28;;;3.00;;
46765;SDS011;32527;51.986;5.842;2022-12-07T14:57:55;8.52;;;2.67;;
46765;SDS011;32527;51.986;5.842;2022-12-07T15:00:22;7.80;;;2.55;;
46765;SDS011;32527;51.986;5.842;2022-12-07T15:02:49;6.15;;;2.20;;
46765;SDS011;32527;51.986;5.842;2022-12-07T15:05:15;8.45;;;2.22;;
46765;SDS011;32527;51.986;5.842;2022-12-07T15:07:41;8.13;;;3.65;;
46765;SDS011;32527;51.986;5.842;2022-12-07T15:10:18;11.32;;;3.88;;
46765;SDS011;32527;51.986;5.842;2022-12-07T15:12:45;12.30;;;5.70;;
46765;SDS011;32527;51.986;5.842;2022-12-07T15:15:12;9.02;;;3.05;;
46765;SDS011;32527;51.986;5.842;2022-12-07T15:17:38;9.27;;;3.00;;
46765;SDS011;32527;51.986;5.842;2022-12-07T15:20:14;7.20;;;3.63;;
46765;SDS011;32527;51.986;5.842;2022-12-07T15:22:49;6.53;;;2.88;;
46765;SDS011;32527;51.986;5.842;2022-12-07T15:25:15;7.30;;;3.17;;
46765;SDS011;32527;51.986;5.842;2022-12-07T15:27:41;7.35;;;3.00;;
46765;SDS011;32527;51.986;5.842;2022-12-07T15:30:07;9.00;;;3.33;;
46765;SDS011;32527;51.986;5.842;2022-12-07T15:32:33;11.45;;;3.33;;
46765;SDS011;32527;51.986;5.842;2022-12-07T15:34:59;5.50;;;2.58;;
46765;SDS011;32527;51.986;5.842;2022-12-07T15:37:25;6.97;;;3.42;;
46765;SDS011;32527;51.986;5.842;2022-12-07T15:39:51;8.98;;;4.18;;
46765;SDS011;32527;51.986;5.842;2022-12-07T15:42:17;15.60;;;4.85;;
46765;SDS011;32527;51.986;5.842;2022-12-07T15:44:43;9.00;;;4.45;;
46765;SDS011;32527;51.986;5.842;2022-12-07T15:47:28;10.13;;;4.10;;
46765;SDS011;32527;51.986;5.842;2022-12-07T15:49:55;9.77;;;5.10;;
46765;SDS011;32527;51.986;5.842;2022-12-07T15:52:20;13.35;;;4.90;;
46765;SDS011;32527;51.986;5.842;2022-12-07T15:54:47;7.75;;;3.75;;
46765;SDS011;32527;51.986;5.842;2022-12-07T15:57:13;11.18;;;3.60;;
46765;SDS011;32527;51.986;5.842;2022-12-07T15:59:39;6.53;;;3.60;;
46765;SDS011;32527;51.986;5.842;2022-12-07T16:02:05;12.10;;;4.05;;
46765;SDS011;32527;51.986;5.842;2022-12-07T16:04:31;14.68;;;4.10;;
46765;SDS011;32527;51.986;5.842;2022-12-07T16:06:57;12.35;;;5.28;;
46765;SDS011;32527;51.986;5.842;2022-12-07T16:09:23;14.98;;;6.18;;
46765;SDS011;32527;51.986;5.842;2022-12-07T16:11:49;14.93;;;6.05;;
46765;SDS011;32527;51.986;5.842;2022-12-07T16:14:15;18.48;;;6.72;;
46765;SDS011;32527;51.986;5.842;2022-12-07T16:16:41;22.38;;;7.10;;
46765;SDS011;32527;51.986;5.842;2022-12-07T16:19:07;14.48;;;6.05;;
46765;SDS011;32527;51.986;5.842;2022-12-07T16:21:34;8.98;;;4.20;;
46765;SDS011;32527;51.986;5.842;2022-12-07T16:24:00;9.55;;;4.25;;
46765;SDS011;32527;51.986;5.842;2022-12-07T16:26:27;5.97;;;3.10;;
46765;SDS011;32527;51.986;5.842;2022-12-07T16:28:53;7.10;;;3.20;;
46765;SDS011;32527;51.986;5.842;2022-12-07T16:31:23;9.65;;;3.53;;
46765;SDS011;32527;51.986;5.842;2022-12-07T16:33:52;7.55;;;2.78;;
46765;SDS011;32527;51.986;5.842;2022-12-07T16:36:19;7.30;;;3.40;;
46765;SDS011;32527;51.986;5.842;2022-12-07T16:38:47;7.13;;;3.80;;
46765;SDS011;32527;51.986;5.842;2022-12-07T16:41:13;8.77;;;2.83;;
46765;SDS011;32527;51.986;5.842;2022-12-07T16:43:39;9.82;;;3.10;;
46765;SDS011;32527;51.986;5.842;2022-12-07T16:46:05;5.72;;;3.10;;
46765;SDS011;32527;51.986;5.842;2022-12-07T16:48:34;8.80;;;3.20;;
46765;SDS011;32527;51.986;5.842;2022-12-07T16:51:05;3.75;;;2.60;;
46765;SDS011;32527;51.986;5.842;2022-12-07T16:53:34;12.45;;;2.85;;
46765;SDS011;32527;51.986;5.842;2022-12-07T16:56:00;6.68;;;3.10;;
46765;SDS011;32527;51.986;5.842;2022-12-07T16:58:26;7.70;;;3.25;;
46765;SDS011;32527;51.986;5.842;2022-12-07T17:00:52;7.43;;;2.55;;
46765;SDS011;32527;51.986;5.842;2022-12-07T17:03:18;9.65;;;3.38;;
46765;SDS011;32527;51.986;5.842;2022-12-07T17:05:44;8.57;;;4.03;;
46765;SDS011;32527;51.986;5.842;2022-12-07T17:08:11;7.30;;;3.88;;
46765;SDS011;32527;51.986;5.842;2022-12-07T17:10:39;9.88;;;4.10;;
46765;SDS011;32527;51.986;5.842;2022-12-07T17:13:06;4.95;;;3.78;;
46765;SDS011;32527;51.986;5.842;2022-12-07T17:16:01;6.63;;;3.53;;
46765;SDS011;32527;51.986;5.842;2022-12-07T17:18:29;10.15;;;3.63;;
46765;SDS011;32527;51.986;5.842;2022-12-07T17:21:06;7.03;;;3.70;;
46765;SDS011;32527;51.986;5.842;2022-12-07T17:23:34;11.35;;;5.68;;
46765;SDS011;32527;51.986;5.842;2022-12-07T17:26:07;11.45;;;5.20;;
46765;SDS011;32527;51.986;5.842;2022-12-07T17:28:37;8.45;;;4.50;;
46765;SDS011;32527;51.986;5.842;2022-12-07T17:31:04;6.80;;;3.53;;